EDT,Max TemperatureF,Mean TemperatureF,Min TemperatureF,Max Dew PointF,MeanDew PointF,Min DewpointF,Max Humidity, Mean Humidity, Min Humidity, Max Sea Level PressureIn, Mean Sea Level PressureIn, Min Sea Level PressureIn, Max VisibilityMiles, Mean VisibilityMiles, Min VisibilityMiles, Max Wind SpeedMPH, Mean Wind SpeedMPH, Max Gust SpeedMPH,PrecipitationIn, CloudCover, Events, WindDirDegrees
2010-10-1,71,64,57,68,64,55,100,94,87,29.76,29.64,29.56,10,5,1,26,15,36,1.32,8,Rain,236
2010-10-2,62,51,39,56,45,37,93,70,46,30.09,29.81,29.58,10,10,10,21,9,29,0.02,3,Rain,309
2010-10-3,60,48,36,42,39,35,100,76,51,30.32,30.22,30.10,10,10,10,13,3,15,0.00,3,,1
2010-10-4,62,52,42,46,42,38,89,69,49,30.37,30.29,30.19,10,10,10,16,8,21,0.00,6,,26
2010-10-5,67,56,45,46,44,40,86,62,37,30.19,30.16,30.11,10,10,10,10,5,14,0.00,3,,10
2010-10-6,62,53,44,50,46,42,96,76,56,30.21,30.01,29.63,10,7,1,16,7,23,0.63,7,Rain,33
2010-10-7,56,52,48,54,50,40,100,83,66,29.59,29.40,29.27,10,8,2,18,9,25,0.06,7,Rain,218
2010-10-8,62,50,38,45,41,37,96,71,46,29.65,29.59,29.53,10,10,10,21,6,35,0.00,3,,259
2010-10-9,53,45,37,40,31,27,89,64,39,29.83,29.76,29.66,10,10,10,25,8,35,0.00,3,,298
2010-10-10,62,50,38,31,29,26,70,49,27,29.80,29.67,29.55,10,10,10,18,6,25,0.00,2,,253
2010-10-11,60,49,37,38,34,31,79,56,33,29.82,29.69,29.59,10,10,10,23,5,28,0.00,3,,292
2010-10-12,60,46,32,37,36,32,96,66,36,29.86,29.81,29.75,10,10,9,10,3,29,0.00,2,,308
2010-10-13,86,60,34,40,36,33,92,68,43,30.05,29.96,29.87,10,10,10,15,7,18,0.00,1,,306
2010-10-14,60,46,31,46,38,28,96,75,53,30.09,30.02,29.88,10,8,0,14,2,17,0.01,5,Fog-Rain,128
2010-10-15,55,52,48,52,48,45,93,87,80,29.85,29.30,29.10,10,6,2,26,13,39,1.52,8,Rain,83
2010-10-16,54,49,43,49,46,39,93,85,76,29.66,29.43,29.26,10,9,1,23,11,32,0.39,7,Rain,349
2010-10-17,60,50,39,40,38,34,86,63,39,29.67,29.61,29.53,10,10,10,18,6,28,T,3,,282
2010-10-18,52,44,36,36,29,24,82,59,35,29.83,29.72,29.64,10,10,10,20,6,30,0.00,3,,268
2010-10-19,53,42,31,32,28,22,92,61,30,29.89,29.85,29.82,10,10,10,13,3,17,0.00,3,,245
2010-10-20,62,48,33,48,39,33,89,62,34,29.89,29.83,29.78,10,10,10,17,7,23,0.00,3,,189
2010-10-21,57,49,40,49,46,38,93,80,66,29.77,29.55,29.43,10,8,2,20,8,29,0.44,7,Rain,179
2010-10-22,47,42,37,36,28,24,85,65,45,29.77,29.65,29.50,10,10,10,23,9,35,T,5,Rain,271
2010-10-23,49,42,35,27,25,23,64,53,42,30.10,29.90,29.77,10,10,10,28,11,33,0.00,2,,292
2010-10-24,50,42,34,33,28,26,75,61,46,30.19,30.14,30.11,10,10,10,9,4,14,0.01,6,Rain,258
2010-10-25,52,46,40,52,44,36,96,88,79,30.12,30.00,29.86,10,8,0,10,2,13,0.14,8,Fog-Rain,157
2010-10-26,59,55,51,56,53,50,100,90,80,30.05,29.89,29.80,10,4,0,13,2,15,0.55,8,Fog-Rain,77
2010-10-27,63,59,54,62,59,53,100,97,93,30.04,29.86,29.75,10,3,0,17,7,25,0.50,8,Fog-Rain,156
2010-10-28,69,57,44,61,55,37,100,72,44,29.79,29.75,29.62,10,5,0,18,4,24,0.00,6,Fog,196
2010-10-29,56,47,37,42,38,34,92,72,51,29.82,29.78,29.74,10,10,10,14,3,21,T,4,,286
2010-10-30,44,39,34,32,27,21,76,63,49,29.82,29.77,29.73,10,10,10,15,7,21,0.06,6,Rain,282
2010-10-31,37,34,31,34,31,25,96,80,64,29.95,29.73,29.65,10,6,0,16,7,22,0.18,8,Fog-Rain-Snow,10